createdAt,value
2023-05-17T00:01:51.305Z,101946.53
2023-05-17T00:04:19.369Z,101939.47
2023-05-17T00:06:47.303Z,101942.88
2023-05-17T00:09:15.272Z,101934.53
2023-05-17T00:11:43.205Z,101949.75
2023-05-17T00:14:11.711Z,101952.75
2023-05-17T00:16:39.851Z,101949.31
2023-05-17T00:19:09.752Z,101951.03
2023-05-17T00:21:38.123Z,101955.97
2023-05-17T00:24:06.851Z,101960.03
2023-05-17T00:26:34.849Z,101972.03
2023-05-17T00:29:03.595Z,101958.75
2023-05-17T00:31:31.520Z,101968.81
2023-05-17T00:33:59.449Z,101959.16
2023-05-17T00:36:28.803Z,101962.41
2023-05-17T00:38:56.721Z,101961.28
2023-05-17T00:41:24.869Z,101959.59
2023-05-17T00:43:53.043Z,101957.44
2023-05-17T00:46:20.989Z,101956.75
2023-05-17T00:48:48.980Z,101958.47
2023-05-17T00:51:17.860Z,101958.50
2023-05-17T00:53:47.336Z,101961.00
2023-05-17T00:56:15.315Z,101959.56
2023-05-17T00:58:43.485Z,101966.84
2023-05-17T01:01:11.435Z,101968.16
2023-05-17T01:03:39.683Z,101970.69
2023-05-17T01:06:07.962Z,101970.91
2023-05-17T01:08:36.103Z,101973.69
2023-05-17T01:11:11.734Z,101984.00
2023-05-17T01:13:43.787Z,101984.44
2023-05-17T01:16:17.619Z,101988.31
2023-05-17T01:18:49.648Z,101987.00
2023-05-17T01:21:32.161Z,101989.13
2023-05-17T01:24:07.811Z,101994.50
2023-05-17T01:26:40.630Z,101995.38
2023-05-17T01:29:09.945Z,102000.72
2023-05-17T01:31:38.601Z,101989.81
2023-05-17T01:34:08.644Z,101997.69
2023-05-17T01:36:37.348Z,101996.47
2023-05-17T01:39:05.313Z,101991.75
2023-05-17T01:41:40.029Z,102000.09
2023-05-17T01:44:14.423Z,102005.41
2023-05-17T01:46:43.564Z,102011.81
2023-05-17T01:49:19.511Z,102011.38
2023-05-17T01:51:50.375Z,102004.53
2023-05-17T01:54:23.122Z,102010.47
2023-05-17T01:56:57.691Z,102015.34
2023-05-17T01:59:26.840Z,102021.41
2023-05-17T02:01:56.619Z,102016.09
2023-05-17T02:04:24.735Z,102011.78
2023-05-17T02:06:52.705Z,102018.59
2023-05-17T02:09:20.799Z,102014.69
2023-05-17T02:11:48.717Z,102016.00
2023-05-17T02:14:18.036Z,102022.47
2023-05-17T02:16:46.008Z,102026.81
2023-05-17T02:19:15.204Z,102028.66
2023-05-17T02:21:43.168Z,102028.59
2023-05-17T02:24:11.140Z,102027.56
2023-05-17T02:26:42.826Z,102027.59
2023-05-17T02:29:11.168Z,102033.38
2023-05-17T02:31:40.492Z,102044.72
2023-05-17T02:34:08.550Z,102038.69
2023-05-17T02:36:36.468Z,102052.00
2023-05-17T02:39:04.490Z,102051.50
2023-05-17T02:41:32.429Z,102059.16
2023-05-17T02:44:00.540Z,102056.88
2023-05-17T02:46:28.515Z,102057.09
2023-05-17T02:48:57.807Z,102065.09
2023-05-17T02:51:25.738Z,102063.31
2023-05-17T02:53:53.681Z,102072.88
2023-05-17T02:56:21.753Z,102077.09
2023-05-17T02:58:49.677Z,102081.06
2023-05-17T03:01:17.644Z,102069.75
2023-05-17T03:03:45.750Z,102073.16
2023-05-17T03:06:16.970Z,102075.91
2023-05-17T03:08:44.894Z,102087.94
2023-05-17T03:11:12.832Z,102081.97
2023-05-17T03:13:40.756Z,102085.56
2023-05-17T03:16:09.653Z,102092.81
2023-05-17T03:18:37.767Z,102079.72
2023-05-17T03:21:05.844Z,102090.72
2023-05-17T03:23:35.177Z,102089.94
2023-05-17T03:26:03.208Z,102091.19
2023-05-17T03:28:31.115Z,102088.84
2023-05-17T03:30:59.132Z,102090.22
2023-05-17T03:33:27.191Z,102092.56
2023-05-17T03:35:55.155Z,102101.94
2023-05-17T03:38:23.303Z,102102.69
2023-05-17T03:40:54.377Z,102107.59
2023-05-17T03:43:22.302Z,102110.94
2023-05-17T03:45:50.212Z,102118.38
2023-05-17T03:48:18.231Z,102123.38
2023-05-17T03:50:46.269Z,102126.16
2023-05-17T03:53:14.202Z,102133.38
2023-05-17T03:55:42.173Z,102135.00
2023-05-17T03:58:11.507Z,102126.88
2023-05-17T04:00:39.463Z,102131.06
2023-05-17T04:03:07.834Z,102135.47
2023-05-17T04:05:35.943Z,102141.63
2023-05-17T04:08:03.917Z,102137.38
2023-05-17T04:10:32.010Z,102150.19
2023-05-17T04:12:59.914Z,102153.81
2023-05-17T04:15:29.397Z,102154.41
2023-05-17T04:17:57.575Z,102163.97
2023-05-17T04:20:25.578Z,102151.97
2023-05-17T04:22:53.546Z,102162.66
2023-05-17T04:25:22.587Z,102161.91
2023-05-17T04:27:50.564Z,102169.56
2023-05-17T04:30:18.729Z,102168.66
2023-05-17T04:32:48.200Z,102176.44
2023-05-17T04:35:16.264Z,102179.25
2023-05-17T04:37:44.593Z,102184.81
2023-05-17T04:40:14.643Z,102179.72
2023-05-17T04:42:42.556Z,102182.94
2023-05-17T04:45:15.398Z,102188.88
2023-05-17T04:47:43.825Z,102192.22
2023-05-17T04:50:13.621Z,102200.34
2023-05-17T04:52:41.564Z,102209.78
2023-05-17T04:55:10.423Z,102200.75
2023-05-17T04:57:38.398Z,102197.75
2023-05-17T05:00:09.986Z,102204.19
2023-05-17T05:02:38.108Z,102203.94
2023-05-17T05:05:07.142Z,102213.69
2023-05-17T05:07:36.575Z,102218.84
2023-05-17T05:10:04.870Z,102228.44
2023-05-17T05:12:32.796Z,102226.94
2023-05-17T05:15:01.279Z,102219.34
2023-05-17T05:17:30.337Z,102221.25
2023-05-17T05:19:58.367Z,102217.28
2023-05-17T05:22:26.425Z,102222.69
2023-05-17T05:24:56.460Z,102227.91
2023-05-17T05:27:24.391Z,102240.50
2023-05-17T05:29:52.471Z,102243.09
2023-05-17T05:32:20.401Z,102242.44
2023-05-17T05:34:48.401Z,102245.28
2023-05-17T05:37:18.595Z,102258.91
2023-05-17T05:39:46.791Z,102263.22
2023-05-17T05:42:16.154Z,102265.16
2023-05-17T05:44:44.108Z,102271.03
2023-05-17T05:47:12.051Z,102272.81
2023-05-17T05:49:40.048Z,102275.47
2023-05-17T05:52:08.287Z,102282.44
2023-05-17T05:54:36.230Z,102275.16
2023-05-17T05:57:04.427Z,102280.50
2023-05-17T05:59:33.733Z,102281.75
2023-05-17T06:02:01.675Z,102286.22
2023-05-17T06:04:43.669Z,102284.00
2023-05-17T06:07:13.653Z,102293.06
2023-05-17T06:09:41.616Z,102307.00
2023-05-17T06:12:09.656Z,102300.31
2023-05-17T06:14:39.020Z,102316.88
2023-05-17T06:17:07.069Z,102312.13
2023-05-17T06:19:35.231Z,102318.31
2023-05-17T06:22:03.299Z,102329.47
2023-05-17T06:24:31.222Z,102338.09
2023-05-17T06:26:59.300Z,102328.28
2023-05-17T06:29:27.228Z,102334.72
2023-05-17T06:31:58.139Z,102332.91
2023-05-17T06:34:26.057Z,102342.06
2023-05-17T06:36:54.008Z,102348.34
2023-05-17T06:39:21.924Z,102348.16
2023-05-17T06:41:49.828Z,102352.81
2023-05-17T06:44:17.769Z,102351.44
2023-05-17T06:46:45.773Z,102360.22
2023-05-17T06:49:15.132Z,102354.63
2023-05-17T06:51:43.100Z,102373.69
2023-05-17T06:54:11.244Z,102370.50
2023-05-17T06:56:40.184Z,102379.28
2023-05-17T06:59:08.141Z,102379.72
2023-05-17T07:01:36.113Z,102383.72
2023-05-17T07:04:04.269Z,102388.38
2023-05-17T07:06:33.655Z,102387.06
2023-05-17T07:09:01.774Z,102385.53
2023-05-17T07:11:29.737Z,102391.66
2023-05-17T07:13:57.748Z,102399.25
2023-05-17T07:16:25.679Z,102393.91
2023-05-17T07:18:54.109Z,102387.44
2023-05-17T07:21:23.782Z,102399.22
2023-05-17T07:23:53.145Z,102387.06
2023-05-17T07:26:21.677Z,102396.38
2023-05-17T07:28:49.977Z,102396.75
2023-05-17T07:31:17.945Z,102396.47
2023-05-17T07:33:46.192Z,102404.19
2023-05-17T07:36:14.298Z,102418.97
2023-05-17T07:38:42.375Z,102404.69
2023-05-17T07:41:13.937Z,102411.94
2023-05-17T07:43:41.851Z,102418.66
2023-05-17T07:46:09.796Z,102426.22
2023-05-17T07:48:37.851Z,102429.47
2023-05-17T07:51:06.102Z,102439.13
2023-05-17T07:53:34.123Z,102434.41
2023-05-17T07:56:02.072Z,102436.69
2023-05-17T07:58:31.414Z,102444.41
2023-05-17T08:01:00.744Z,102444.72
2023-05-17T08:03:29.586Z,102449.28
2023-05-17T08:05:57.586Z,102449.22
2023-05-17T08:08:25.645Z,102453.81
2023-05-17T08:10:53.595Z,102470.28
2023-05-17T08:13:21.515Z,102463.47
2023-05-17T08:15:55.972Z,102470.94
2023-05-17T08:18:29.691Z,102465.56
2023-05-17T08:20:57.745Z,102476.22
2023-05-17T08:23:25.944Z,102476.19
2023-05-17T08:25:53.889Z,102475.53
2023-05-17T08:28:22.280Z,102469.72
2023-05-17T08:30:51.610Z,102469.41
2023-05-17T08:33:20.854Z,102468.53
2023-05-17T08:35:49.091Z,102469.47
2023-05-17T08:38:19.222Z,102467.47
2023-05-17T08:40:54.409Z,102459.84
2023-05-17T08:43:26.833Z,102457.16
2023-05-17T08:45:58.212Z,102467.09
2023-05-17T08:48:27.705Z,102478.97
2023-05-17T08:50:55.913Z,102483.03
2023-05-17T08:53:24.171Z,102476.13
2023-05-17T08:55:52.688Z,102484.28
2023-05-17T08:58:22.678Z,102491.19
2023-05-17T09:00:51.974Z,102506.28
2023-05-17T09:03:22.581Z,102521.22
2023-05-17T09:05:52.745Z,102521.47
2023-05-17T09:08:21.378Z,102512.19
2023-05-17T09:10:49.470Z,102532.63
2023-05-17T09:13:17.603Z,102523.09
2023-05-17T09:15:46.365Z,102526.59
2023-05-17T09:18:16.375Z,102523.41
2023-05-17T09:20:51.613Z,102522.06
2023-05-17T09:23:22.427Z,102516.72
2023-05-17T09:25:51.004Z,102514.84
2023-05-17T09:28:20.776Z,102518.91
2023-05-17T09:30:50.122Z,102515.91
2023-05-17T09:33:22.098Z,102519.34
2023-05-17T09:35:51.552Z,102504.72
2023-05-17T09:38:19.565Z,102515.59
2023-05-17T09:40:50.292Z,102521.94
2023-05-17T09:43:18.560Z,102517.22
2023-05-17T09:45:46.768Z,102524.53
2023-05-17T09:48:15.709Z,102529.28
2023-05-17T09:50:47.428Z,102530.59
2023-05-17T09:53:30.273Z,102534.63
2023-05-17T09:55:59.858Z,102530.13
2023-05-17T09:58:28.963Z,102528.53
2023-05-17T10:01:00.452Z,102532.03
2023-05-17T10:03:32.120Z,102534.44
2023-05-17T10:06:02.454Z,102539.16
2023-05-17T10:08:33.493Z,102539.47
2023-05-17T10:11:05.262Z,102540.69
2023-05-17T10:13:42.427Z,102525.84
2023-05-17T10:16:10.940Z,102531.34
2023-05-17T10:18:41.735Z,102527.34
2023-05-17T10:21:10.808Z,102539.09
2023-05-17T10:23:40.439Z,102535.00
2023-05-17T10:26:08.494Z,102536.13
2023-05-17T10:28:37.938Z,102534.38
2023-05-17T10:31:06.503Z,102529.22
2023-05-17T10:33:34.526Z,102526.13
2023-05-17T10:36:04.068Z,102533.31
2023-05-17T10:38:41.889Z,102514.88
2023-05-17T10:41:13.015Z,102518.03
2023-05-17T10:43:42.268Z,102518.38
2023-05-17T10:46:15.787Z,102525.59
2023-05-17T10:48:55.927Z,102543.63
2023-05-17T10:51:26.046Z,102528.88
2023-05-17T10:54:11.657Z,102538.38
2023-05-17T10:56:48.526Z,102534.84
2023-05-17T10:59:17.932Z,102533.56
2023-05-17T11:02:02.975Z,102532.63
2023-05-17T11:04:34.575Z,102548.97
2023-05-17T11:07:24.775Z,102550.78
2023-05-17T11:09:56.170Z,102548.41
2023-05-17T11:12:38.535Z,102547.28
2023-05-17T11:15:09.437Z,102551.53
2023-05-17T11:17:49.818Z,102554.03
2023-05-17T11:20:37.168Z,102543.66
2023-05-17T11:23:06.953Z,102534.72
2023-05-17T11:25:36.264Z,102546.72
2023-05-17T11:28:09.981Z,102544.53
2023-05-17T11:30:43.533Z,102553.13
2023-05-17T11:33:24.958Z,102550.25
2023-05-17T11:36:05.494Z,102563.66
2023-05-17T11:38:34.450Z,102570.88
2023-05-17T11:43:51.168Z,102549.69
2023-05-17T11:46:23.946Z,102553.72
2023-05-17T11:48:52.464Z,102540.19
2023-05-17T11:51:24.438Z,102557.34
2023-05-17T11:53:55.579Z,102541.75
2023-05-17T11:56:35.456Z,102549.44
2023-05-17T11:59:11.933Z,102552.34
2023-05-17T12:01:47.528Z,102546.50
2023-05-17T12:04:16.366Z,102547.50
2023-05-17T12:06:45.523Z,102548.63
2023-05-17T12:09:17.734Z,102552.84
2023-05-17T12:11:46.313Z,102562.25
2023-05-17T12:14:18.508Z,102567.34
2023-05-17T12:16:50.218Z,102566.63
2023-05-17T12:19:22.245Z,102573.22
2023-05-17T12:21:50.737Z,102568.94
2023-05-17T12:24:19.250Z,102562.97
2023-05-17T12:26:48.063Z,102573.53
2023-05-17T12:29:22.942Z,102582.78
2023-05-17T12:31:54.079Z,102575.34
2023-05-17T12:34:22.465Z,102566.31
2023-05-17T12:36:50.594Z,102569.13
2023-05-17T12:39:23.693Z,102570.69
2023-05-17T12:41:52.468Z,102565.41
2023-05-17T12:44:22.227Z,102576.00
2023-05-17T12:46:53.965Z,102573.09
2023-05-17T12:49:23.239Z,102570.13
2023-05-17T12:51:51.311Z,102575.72
2023-05-17T12:54:28.066Z,102576.81
2023-05-17T12:56:56.453Z,102566.88
2023-05-17T12:59:28.787Z,102553.31
2023-05-17T13:01:57.610Z,102555.88
2023-05-17T13:04:31.862Z,102559.13
2023-05-17T13:07:01.081Z,102562.84
2023-05-17T13:09:31.221Z,102559.75
2023-05-17T13:12:01.020Z,102573.34
2023-05-17T13:14:38.178Z,102577.06
2023-05-17T13:17:07.057Z,102574.13
2023-05-17T13:19:36.102Z,102581.16
2023-05-17T13:22:04.378Z,102584.75
2023-05-17T13:24:32.771Z,102584.63
2023-05-17T13:27:00.746Z,102581.88
2023-05-17T13:29:38.717Z,102582.03
2023-05-17T13:32:11.582Z,102576.25
2023-05-17T13:34:40.112Z,102583.03
2023-05-17T13:37:11.517Z,102575.44
2023-05-17T13:39:41.031Z,102583.34
2023-05-17T13:42:09.781Z,102579.13
2023-05-17T13:44:38.401Z,102585.19
2023-05-17T13:47:06.924Z,102591.56
2023-05-17T13:49:36.300Z,102592.41
2023-05-17T13:52:08.503Z,102579.91
2023-05-17T13:54:36.623Z,102582.88
2023-05-17T13:57:05.159Z,102580.66
2023-05-17T13:59:33.212Z,102587.13
2023-05-17T14:02:01.337Z,102598.22
2023-05-17T14:04:29.303Z,102592.50
2023-05-17T14:06:58.623Z,102587.97
2023-05-17T14:09:26.607Z,102594.22
2023-05-17T14:11:54.713Z,102603.47
2023-05-17T14:14:26.142Z,102596.78
2023-05-17T14:16:54.095Z,102613.22
2023-05-17T14:19:22.126Z,102600.78
2023-05-17T14:21:51.116Z,102596.41
2023-05-17T14:24:20.438Z,102597.47
2023-05-17T14:26:48.388Z,102598.00
2023-05-17T14:29:16.682Z,102595.28
2023-05-17T14:31:44.663Z,102612.81
2023-05-17T14:34:12.692Z,102620.31
2023-05-17T14:36:40.660Z,102604.13
2023-05-17T14:39:08.622Z,102617.75
2023-05-17T14:41:39.327Z,102608.09
2023-05-17T14:44:07.327Z,102604.81
2023-05-17T14:46:35.646Z,102607.75
2023-05-17T14:49:03.606Z,102625.25
2023-05-17T14:51:31.814Z,102611.06
2023-05-17T14:53:59.875Z,102619.03
2023-05-17T14:56:27.863Z,102624.56
2023-05-17T14:58:57.690Z,102626.03
2023-05-17T15:01:25.758Z,102625.06
2023-05-17T15:03:53.790Z,102635.22
2023-05-17T15:06:24.949Z,102640.59
2023-05-17T15:08:53.027Z,102633.94
2023-05-17T15:11:21.978Z,102626.47
2023-05-17T15:13:49.969Z,102631.88
2023-05-17T15:16:19.379Z,102629.41
2023-05-17T15:18:47.710Z,102640.78
2023-05-17T15:21:17.655Z,102634.81
2023-05-17T15:23:46.091Z,102637.56
2023-05-17T15:26:14.045Z,102630.94
2023-05-17T15:28:42.097Z,102640.41
2023-05-17T15:31:10.844Z,102646.41
2023-05-17T15:33:42.567Z,102635.84
2023-05-17T15:36:11.291Z,102637.13
2023-05-17T15:38:40.913Z,102640.88
2023-05-17T15:41:13.051Z,102635.50
2023-05-17T15:43:41.563Z,102625.41
2023-05-17T15:46:09.832Z,102622.59
2023-05-17T15:48:39.292Z,102627.59
2023-05-17T15:51:07.634Z,102634.91
2023-05-17T15:53:35.679Z,102633.88
2023-05-17T15:56:03.631Z,102641.97
2023-05-17T15:58:33.420Z,102639.72
2023-05-17T16:01:04.317Z,102655.72
2023-05-17T16:03:32.582Z,102645.50
2023-05-17T16:06:02.950Z,102646.53
2023-05-17T16:08:31.005Z,102654.38
2023-05-17T16:11:00.806Z,102644.84
2023-05-17T16:13:30.123Z,102652.34
2023-05-17T16:15:58.202Z,102666.53
2023-05-17T16:18:26.234Z,102657.13
2023-05-17T16:20:59.372Z,102655.81
2023-05-17T16:23:28.965Z,102657.81
2023-05-17T16:25:57.186Z,102651.78
2023-05-17T16:28:25.149Z,102653.88
2023-05-17T16:30:53.470Z,102653.59
2023-05-17T16:33:21.626Z,102663.59
2023-05-17T16:35:49.912Z,102661.03
2023-05-17T16:38:18.177Z,102661.00
2023-05-17T16:40:47.552Z,102662.69
2023-05-17T16:43:16.257Z,102663.59
2023-05-17T16:45:45.422Z,102668.75
2023-05-17T16:48:14.774Z,102664.84
2023-05-17T16:50:43.262Z,102674.97
2023-05-17T16:53:11.260Z,102674.81
2023-05-17T16:55:39.195Z,102671.56
2023-05-17T16:58:08.569Z,102671.81
2023-05-17T17:00:36.628Z,102676.97
2023-05-17T17:03:07.272Z,102673.53
2023-05-17T17:05:37.265Z,102673.53
2023-05-17T17:08:05.230Z,102686.00
2023-05-17T17:10:33.210Z,102689.47
2023-05-17T17:13:01.669Z,102684.53
2023-05-17T17:15:31.005Z,102683.44
2023-05-17T17:17:58.964Z,102682.88
2023-05-17T17:20:27.233Z,102683.06
2023-05-17T17:22:55.749Z,102684.22
2023-05-17T17:25:24.832Z,102692.47
2023-05-17T17:27:53.309Z,102692.91
2023-05-17T17:30:21.375Z,102689.84
2023-05-17T17:32:50.831Z,102693.72
2023-05-17T17:35:18.883Z,102688.63
2023-05-17T17:37:46.859Z,102689.25
2023-05-17T17:40:14.893Z,102694.94
2023-05-17T17:42:42.846Z,102700.66
2023-05-17T17:45:11.652Z,102695.13
2023-05-17T17:47:39.634Z,102693.84
2023-05-17T17:50:10.215Z,102706.31
2023-05-17T17:52:38.358Z,102711.25
2023-05-17T17:55:07.618Z,102711.56
2023-05-17T17:57:35.936Z,102715.81
2023-05-17T18:00:04.264Z,102720.38
2023-05-17T18:02:32.240Z,102708.75
2023-05-17T18:05:00.334Z,102719.09
2023-05-17T18:07:29.708Z,102717.16
2023-05-17T18:09:58.524Z,102720.47
2023-05-17T18:12:27.189Z,102724.22
2023-05-17T18:14:55.204Z,102726.88
2023-05-17T18:17:23.298Z,102727.84
2023-05-17T18:19:51.428Z,102731.34
2023-05-17T18:22:19.409Z,102734.75
2023-05-17T18:24:49.428Z,102729.16
2023-05-17T18:27:17.560Z,102741.13
2023-05-17T18:29:45.476Z,102746.34
2023-05-17T18:32:13.432Z,102733.75
2023-05-17T18:34:41.414Z,102740.63
2023-05-17T18:37:09.389Z,102743.78
2023-05-17T18:39:37.349Z,102739.25
2023-05-17T18:42:07.063Z,102739.47
2023-05-17T18:44:36.112Z,102731.13
2023-05-17T18:47:04.240Z,102734.59
2023-05-17T18:49:32.242Z,102740.97
2023-05-17T18:52:00.179Z,102743.47
2023-05-17T18:54:28.149Z,102743.28
2023-05-17T18:56:56.068Z,102745.28
2023-05-17T18:59:25.430Z,102742.47
2023-05-17T19:01:53.399Z,102741.13
2023-05-17T19:04:21.450Z,102743.97
2023-05-17T19:06:49.411Z,102742.09
2023-05-17T19:09:17.365Z,102750.22
2023-05-17T19:11:45.331Z,102747.81
2023-05-17T19:14:14.717Z,102747.63
2023-05-17T19:16:44.201Z,102752.06
2023-05-17T19:19:12.282Z,102754.19
2023-05-17T19:21:40.232Z,102752.84
2023-05-17T19:24:08.444Z,102753.91
2023-05-17T19:26:36.409Z,102759.75
2023-05-17T19:29:04.365Z,102757.44
2023-05-17T19:31:32.358Z,102751.81
2023-05-17T19:34:02.470Z,102755.50
2023-05-17T19:36:30.983Z,102757.25
2023-05-17T19:38:58.983Z,102764.91
2023-05-17T19:41:26.986Z,102760.75
2023-05-17T19:43:54.905Z,102759.22
2023-05-17T19:46:22.936Z,102759.16
2023-05-17T19:48:51.009Z,102768.53
2023-05-17T19:51:20.328Z,102758.47
2023-05-17T19:53:53.364Z,102763.50
2023-05-17T19:56:22.764Z,102766.00
2023-05-17T19:58:50.774Z,102760.88
2023-05-17T20:01:18.944Z,102765.59
2023-05-17T20:03:47.033Z,102764.22
2023-05-17T20:06:15.268Z,102757.94
2023-05-17T20:08:44.706Z,102768.84
2023-05-17T20:11:12.645Z,102767.50
2023-05-17T20:13:40.786Z,102762.78
2023-05-17T20:16:12.989Z,102763.88
2023-05-17T20:18:43.032Z,102756.38
2023-05-17T20:21:11.423Z,102766.28
2023-05-17T20:23:39.972Z,102761.44
2023-05-17T20:26:16.052Z,102762.59
2023-05-17T20:28:44.150Z,102764.44
2023-05-17T20:31:12.219Z,102766.19
2023-05-17T20:33:40.167Z,102780.56
2023-05-17T20:36:10.029Z,102769.97
2023-05-17T20:38:37.955Z,102776.16
2023-05-17T20:41:06.598Z,102775.72
2023-05-17T20:43:36.812Z,102765.78
2023-05-17T20:46:07.117Z,102768.47
2023-05-17T20:48:35.546Z,102773.38
2023-05-17T20:51:04.099Z,102767.00
2023-05-17T20:53:32.172Z,102765.88
2023-05-17T20:56:00.168Z,102761.28
2023-05-17T20:58:29.094Z,102770.16
2023-05-17T21:00:59.994Z,102767.78
2023-05-17T21:03:28.766Z,102766.13
2023-05-17T21:05:56.872Z,102773.88
2023-05-17T21:08:24.971Z,102780.00
2023-05-17T21:10:52.894Z,102779.41
2023-05-17T21:13:21.742Z,102783.31
2023-05-17T21:15:49.788Z,102782.44
2023-05-17T21:18:19.284Z,102777.94
2023-05-17T21:20:47.325Z,102783.22
2023-05-17T21:23:15.471Z,102773.38
2023-05-17T21:25:44.376Z,102779.31
2023-05-17T21:28:12.669Z,102774.19
2023-05-17T21:30:40.595Z,102773.53
2023-05-17T21:33:08.733Z,102766.78
2023-05-17T21:35:38.083Z,102767.63
2023-05-17T21:38:06.142Z,102772.81
2023-05-17T21:40:34.115Z,102773.88
2023-05-17T21:43:02.044Z,102767.44
2023-05-17T21:45:30.005Z,102777.28
2023-05-17T21:47:58.071Z,102780.44
2023-05-17T21:50:26.273Z,102770.94
2023-05-17T21:52:55.600Z,102768.41
2023-05-17T21:55:23.861Z,102771.03
2023-05-17T21:57:51.816Z,102770.41
2023-05-17T22:00:20.551Z,102772.09
2023-05-17T22:02:48.814Z,102779.31
2023-05-17T22:05:17.111Z,102772.81
2023-05-17T22:07:45.086Z,102778.63
2023-05-17T22:10:14.447Z,102776.31
2023-05-17T22:12:42.453Z,102773.72
2023-05-17T22:15:11.020Z,102765.88
2023-05-17T22:17:50.970Z,102776.88
2023-05-17T22:20:23.704Z,102775.63
2023-05-17T22:22:51.946Z,102771.44
2023-05-17T22:25:21.412Z,102771.63
2023-05-17T22:27:49.369Z,102781.25
2023-05-17T22:30:17.478Z,102778.25
2023-05-17T22:32:45.487Z,102773.88
2023-05-17T22:35:13.567Z,102781.53
2023-05-17T22:37:42.829Z,102778.09
2023-05-17T22:40:11.942Z,102784.78
2023-05-17T22:42:43.193Z,102792.84
2023-05-17T22:45:12.643Z,102792.44
2023-05-17T22:47:42.439Z,102782.53
2023-05-17T22:50:12.192Z,102785.72
2023-05-17T22:52:42.775Z,102783.44
2023-05-17T22:55:11.319Z,102786.31
2023-05-17T22:57:39.439Z,102792.53
2023-05-17T23:00:11.376Z,102790.81
2023-05-17T23:02:39.640Z,102787.31
2023-05-17T23:05:08.052Z,102795.22
2023-05-17T23:07:38.474Z,102795.50
2023-05-17T23:10:08.308Z,102803.25
2023-05-17T23:12:36.948Z,102798.09
2023-05-17T23:15:06.166Z,102797.47
2023-05-17T23:17:36.435Z,102794.84
2023-05-17T23:20:08.641Z,102790.19
2023-05-17T23:22:36.862Z,102797.47
2023-05-17T23:25:06.081Z,102795.63
2023-05-17T23:27:35.347Z,102802.94
2023-05-17T23:30:04.678Z,102799.16
2023-05-17T23:32:34.010Z,102798.03
2023-05-17T23:35:04.977Z,102788.75
2023-05-17T23:37:33.196Z,102802.44
2023-05-17T23:40:01.521Z,102793.34
2023-05-17T23:42:29.744Z,102800.69
2023-05-17T23:44:57.752Z,102802.19
2023-05-17T23:47:25.902Z,102804.66
2023-05-17T23:49:53.864Z,102798.19
2023-05-17T23:52:23.802Z,102806.94
2023-05-17T23:54:52.032Z,102799.56
2023-05-17T23:57:19.972Z,102803.47
2023-05-17T23:59:47.912Z,102812.59
